Time;durP1;ratioP1;P1;durP2;ratioP2;P2;SDS_P1;SDS_P2;PMS_P1;PMS_P2;Temp;Humidity;BMP_temperature;BMP_pressure;BME280_temperature;BME280_humidity;BME280_pressure;Samples;Min_cycle;Max_cycle;Signal;HPM_P1;HPM_P2
2023/03/22 00:01:39;;;;;;;;;;;9.48;6.61;;;;;;2670634;76;20433;-92
2023/03/22 00:05:07;;;;;;;;;;;9.46;6.34;;;;;;2670561;76;20499;-91
2023/03/22 00:08:35;;;;;;;;;;;9.42;6.33;;;;;;2669560;76;20715;-92
2023/03/22 00:12:03;;;;;;;;;;;9.44;6.29;;;;;;2670613;76;20440;-92
2023/03/22 00:15:31;;;;;;;;;;;9.44;6.37;;;;;;2670092;76;20398;-91
2023/03/22 00:19:00;;;;;;;;;;;9.54;6.66;;;;;;2670079;76;20449;-92
2023/03/22 00:22:28;;;;;;;;;;;9.70;6.73;;;;;;2670605;76;20801;-93
2023/03/22 00:25:56;;;;;;;;;;;9.82;6.70;;;;;;2669887;76;20427;-92
2023/03/22 00:29:24;;;;;;;;;;;9.89;6.60;;;;;;2670356;76;20475;-93
2023/03/22 00:32:52;;;;;;;;;;;9.94;6.70;;;;;;2670756;76;20440;-93
2023/03/22 00:36:20;;;;;;;;;;;10.04;6.73;;;;;;2670382;76;20416;-93
2023/03/22 00:39:48;;;;;;;;;;;10.16;6.73;;;;;;2671202;76;20448;-92
2023/03/22 00:43:19;;;;;;;;;;;10.28;6.70;;;;;;2670441;76;20468;-92
2023/03/22 00:46:47;;;;;;;;;;;10.39;6.67;;;;;;2670254;76;20435;-92
2023/03/22 00:50:17;;;;;;;;;;;10.42;6.68;;;;;;2669172;76;21025;-93
2023/03/22 00:53:49;;;;;;;;;;;10.51;6.63;;;;;;2668812;76;20474;-92
2023/03/22 00:57:17;;;;;;;;;;;10.56;6.57;;;;;;2670353;76;20429;-93
2023/03/22 01:00:46;;;;;;;;;;;10.62;6.59;;;;;;2670752;76;20424;-93
2023/03/22 01:04:16;;;;;;;;;;;10.63;6.68;;;;;;2669785;76;20517;-92
2023/03/22 01:07:43;;;;;;;;;;;10.57;7.01;;;;;;2670232;76;20804;-92
2023/03/22 01:11:11;;;;;;;;;;;10.68;7.12;;;;;;2670266;76;20424;-92
2023/03/22 01:14:40;;;;;;;;;;;10.72;7.07;;;;;;2670439;76;20345;-92
2023/03/22 01:18:08;;;;;;;;;;;10.82;7.04;;;;;;2670289;76;20463;-92
2023/03/22 01:21:36;;;;;;;;;;;10.87;6.91;;;;;;2670522;76;20423;-92
2023/03/22 01:25:04;;;;;;;;;;;10.88;6.92;;;;;;2670555;76;20451;-94
2023/03/22 01:28:32;;;;;;;;;;;10.88;7.02;;;;;;2670311;76;20471;-92
2023/03/22 01:32:00;;;;;;;;;;;10.85;6.94;;;;;;2670021;76;20454;-92
2023/03/22 01:35:29;;;;;;;;;;;10.84;6.89;;;;;;2670347;76;20428;-93
2023/03/22 01:38:58;;;;;;;;;;;10.81;6.87;;;;;;2669647;76;20445;-92
2023/03/22 01:42:26;;;;;;;;;;;10.80;6.76;;;;;;2670890;76;20401;-92
2023/03/22 01:45:54;;;;;;;;;;;10.79;6.81;;;;;;2669961;76;20436;-94
2023/03/22 01:49:22;;;;;;;;;;;10.79;6.83;;;;;;2670118;76;20439;-92
2023/03/22 01:52:50;;;;;;;;;;;10.78;6.85;;;;;;2669804;76;20434;-92
2023/03/22 01:56:18;;;;;;;;;;;10.80;6.80;;;;;;2670680;76;20414;-92
2023/03/22 01:59:48;;;;;;;;;;;10.81;6.76;;;;;;2670099;76;20827;-93
2023/03/22 02:03:16;;;;;;;;;;;10.71;6.90;;;;;;2668381;76;20466;-93
2023/03/22 02:06:45;;;;;;;;;;;10.65;7.21;;;;;;2670324;76;20424;-94
2023/03/22 02:10:14;;;;;;;;;;;10.59;7.50;;;;;;2671252;76;20458;-93
2023/03/22 02:13:46;;;;;;;;;;;10.57;7.07;;;;;;2671518;76;20419;-93
2023/03/22 02:17:12;;;;;;;;;;;10.38;6.66;;;;;;2671386;76;20889;-92
2023/03/22 02:20:40;;;;;;;;;;;10.10;6.54;;;;;;2671171;76;20897;-93
2023/03/22 02:24:08;;;;;;;;;;;9.88;6.32;;;;;;2669947;76;20416;-92
2023/03/22 02:27:36;;;;;;;;;;;9.65;6.07;;;;;;2670550;76;20412;-91
2023/03/22 02:31:04;;;;;;;;;;;9.42;6.08;;;;;;2670322;76;20449;-91
2023/03/22 02:34:32;;;;;;;;;;;9.23;6.43;;;;;;2670099;76;20310;-91
2023/03/22 02:38:00;;;;;;;;;;;9.09;6.21;;;;;;2670484;76;20292;-92
2023/03/22 02:41:29;;;;;;;;;;;8.98;6.18;;;;;;2670348;76;20328;-92
2023/03/22 02:44:57;;;;;;;;;;;8.97;6.47;;;;;;2670822;76;20426;-91
2023/03/22 02:48:25;;;;;;;;;;;8.95;6.61;;;;;;2670676;76;20331;-91
2023/03/22 02:51:53;;;;;;;;;;;8.89;6.57;;;;;;2670024;76;20419;-92
2023/03/22 02:55:21;;;;;;;;;;;8.83;6.52;;;;;;2670383;76;20360;-92
2023/03/22 02:58:49;;;;;;;;;;;8.77;6.63;;;;;;2670529;76;20412;-92
2023/03/22 03:02:18;;;;;;;;;;;8.73;7.05;;;;;;2670261;76;20474;-92
2023/03/22 03:05:46;;;;;;;;;;;8.73;7.05;;;;;;2668601;76;20400;-92
2023/03/22 03:09:16;;;;;;;;;;;8.77;7.09;;;;;;2669514;76;20428;-91
2023/03/22 03:12:44;;;;;;;;;;;8.86;7.21;;;;;;2669091;76;20948;-92
2023/03/22 03:16:16;;;;;;;;;;;8.98;7.34;;;;;;2669276;76;20414;-91
2023/03/22 03:19:42;;;;;;;;;;;9.16;7.52;;;;;;2669460;76;20449;-92
2023/03/22 03:23:12;;;;;;;;;;;9.31;7.51;;;;;;2669547;76;20447;-91
2023/03/22 03:26:40;;;;;;;;;;;9.41;7.49;;;;;;2669666;76;20905;-91
2023/03/22 03:30:10;;;;;;;;;;;9.50;7.50;;;;;;2669485;76;20310;-91
2023/03/22 03:33:39;;;;;;;;;;;9.53;7.52;;;;;;2668889;76;20668;-91
2023/03/22 03:37:07;;;;;;;;;;;9.53;7.57;;;;;;2670428;76;20473;-91
2023/03/22 03:40:36;;;;;;;;;;;9.55;7.59;;;;;;2668552;76;20333;-92
2023/03/22 03:44:07;;;;;;;;;;;9.50;7.60;;;;;;2669214;76;20466;-91
2023/03/22 03:47:35;;;;;;;;;;;9.47;7.70;;;;;;2668717;76;20888;-90
2023/03/22 03:51:03;;;;;;;;;;;9.39;7.50;;;;;;2669368;76;20497;-90
2023/03/22 03:54:31;;;;;;;;;;;9.22;7.60;;;;;;2669083;76;20445;-90
2023/03/22 03:57:59;;;;;;;;;;;9.02;7.46;;;;;;2669539;76;20904;-89
2023/03/22 04:01:27;;;;;;;;;;;8.87;7.44;;;;;;2668966;76;20453;-89
2023/03/22 04:04:55;;;;;;;;;;;8.70;7.29;;;;;;2668627;76;20419;-90
2023/03/22 04:08:24;;;;;;;;;;;8.62;7.41;;;;;;2669514;76;20684;-88
2023/03/22 04:11:52;;;;;;;;;;;8.53;7.45;;;;;;2668007;76;20901;-90
2023/03/22 04:15:20;;;;;;;;;;;8.45;7.29;;;;;;2670447;76;20871;-90
2023/03/22 04:18:48;;;;;;;;;;;8.33;7.31;;;;;;2668871;76;20487;-90
2023/03/22 04:22:19;;;;;;;;;;;8.28;7.24;;;;;;2669759;76;20937;-90
2023/03/22 04:25:49;;;;;;;;;;;8.18;7.32;;;;;;2670413;76;20438;-90
2023/03/22 04:29:17;;;;;;;;;;;8.11;7.40;;;;;;2670383;76;20351;-91
2023/03/22 04:32:46;;;;;;;;;;;8.03;7.52;;;;;;2669940;76;20467;-90
2023/03/22 04:36:19;;;;;;;;;;;7.94;7.40;;;;;;2670663;76;20936;-90
2023/03/22 04:39:46;;;;;;;;;;;7.88;7.55;;;;;;2670176;76;21152;-90
2023/03/22 04:43:17;;;;;;;;;;;7.81;7.50;;;;;;2670737;76;20708;-90
2023/03/22 04:46:44;;;;;;;;;;;7.75;7.77;;;;;;2670169;76;20428;-90
2023/03/22 04:50:12;;;;;;;;;;;7.69;7.66;;;;;;2669561;76;20420;-90
2023/03/22 04:53:40;;;;;;;;;;;7.63;7.53;;;;;;2670732;76;20543;-90
2023/03/22 04:57:08;;;;;;;;;;;7.60;7.97;;;;;;2670146;76;20460;-90
2023/03/22 05:00:37;;;;;;;;;;;7.62;8.99;;;;;;2667105;76;20467;-88
2023/03/22 05:04:05;;;;;;;;;;;7.63;8.79;;;;;;2669673;76;20443;-91
2023/03/22 05:07:33;;;;;;;;;;;7.59;8.63;;;;;;2669985;76;20927;-90
2023/03/22 05:11:01;;;;;;;;;;;7.58;8.24;;;;;;2670508;76;20441;-90
2023/03/22 05:14:29;;;;;;;;;;;7.58;8.45;;;;;;2670246;76;20439;-90
2023/03/22 05:17:57;;;;;;;;;;;7.58;8.22;;;;;;2670128;76;20470;-91
2023/03/22 05:21:28;;;;;;;;;;;7.57;8.27;;;;;;2669999;76;21069;-91
2023/03/22 05:24:56;;;;;;;;;;;7.60;8.83;;;;;;2669885;76;20456;-90
2023/03/22 05:28:27;;;;;;;;;;;7.63;9.38;;;;;;2670052;76;20474;-90
2023/03/22 05:31:54;;;;;;;;;;;7.71;9.46;;;;;;2669341;76;20441;-90
2023/03/22 05:35:22;;;;;;;;;;;7.79;9.57;;;;;;2668768;76;20857;-90
2023/03/22 05:38:51;;;;;;;;;;;7.89;9.60;;;;;;2669131;76;20949;-89
2023/03/22 05:42:19;;;;;;;;;;;7.99;9.56;;;;;;2668686;76;20517;-91
2023/03/22 05:45:48;;;;;;;;;;;8.06;9.82;;;;;;2669286;76;20419;-91
2023/03/22 05:49:16;;;;;;;;;;;8.18;9.86;;;;;;2668919;76;20680;-92
2023/03/22 05:52:45;;;;;;;;;;;8.32;9.84;;;;;;2669996;76;20553;-91
2023/03/22 05:56:13;;;;;;;;;;;8.44;10.02;;;;;;2669865;76;21180;-90
2023/03/22 05:59:41;;;;;;;;;;;8.58;9.95;;;;;;2668531;76;20460;-90
2023/03/22 06:03:09;;;;;;;;;;;8.72;10.06;;;;;;2668228;76;20448;-88
2023/03/22 06:06:38;;;;;;;;;;;8.86;10.11;;;;;;2667120;76;20936;-88
2023/03/22 06:10:06;;;;;;;;;;;8.96;10.22;;;;;;2667854;76;20440;-88
2023/03/22 06:13:34;;;;;;;;;;;9.11;10.20;;;;;;2668355;76;20926;-88
2023/03/22 06:17:02;;;;;;;;;;;9.24;10.12;;;;;;2668534;76;20481;-87
2023/03/22 06:20:30;;;;;;;;;;;9.37;10.10;;;;;;2668436;76;20436;-88
2023/03/22 06:23:58;;;;;;;;;;;9.53;10.22;;;;;;2667762;76;20940;-87
2023/03/22 06:27:26;;;;;;;;;;;9.67;10.07;;;;;;2668399;76;20486;-88
2023/03/22 06:30:55;;;;;;;;;;;9.82;10.04;;;;;;2668606;76;20477;-90
2023/03/22 06:34:25;;;;;;;;;;;9.94;9.98;;;;;;2665273;76;21129;-89
2023/03/22 06:37:53;;;;;;;;;;;10.10;9.91;;;;;;2664721;76;20448;-89
2023/03/22 06:41:21;;;;;;;;;;;10.28;9.99;;;;;;2666239;76;20930;-88
2023/03/22 06:44:49;;;;;;;;;;;10.51;9.94;;;;;;2668061;76;20474;-88
2023/03/22 06:48:17;;;;;;;;;;;10.67;9.93;;;;;;2666325;76;20449;-88
2023/03/22 06:51:45;;;;;;;;;;;10.85;9.84;;;;;;2668522;76;20436;-87
2023/03/22 06:55:14;;;;;;;;;;;11.08;9.67;;;;;;2667489;76;21157;-88
2023/03/22 06:58:42;;;;;;;;;;;11.22;9.41;;;;;;2668656;76;20458;-87
2023/03/22 07:02:10;;;;;;;;;;;11.33;9.02;;;;;;2667749;76;21223;-88
2023/03/22 07:05:38;;;;;;;;;;;11.54;8.85;;;;;;2668856;76;21170;-88
2023/03/22 07:09:06;;;;;;;;;;;11.57;8.58;;;;;;2668961;76;20457;-88
2023/03/22 07:12:34;;;;;;;;;;;11.66;8.56;;;;;;2669009;76;20429;-86
2023/03/22 07:16:03;;;;;;;;;;;11.79;8.37;;;;;;2669091;76;20443;-88
2023/03/22 07:19:31;;;;;;;;;;;11.76;7.08;;;;;;2668560;76;20455;-88
2023/03/22 07:22:59;;;;;;;;;;;11.96;7.34;;;;;;2668365;76;20426;-88
2023/03/22 07:26:29;;;;;;;;;;;12.05;6.81;;;;;;2668820;76;20472;-88
2023/03/22 07:29:57;;;;;;;;;;;12.14;6.15;;;;;;2667460;76;20439;-88
2023/03/22 07:33:25;;;;;;;;;;;12.23;6.25;;;;;;2669709;76;20428;-89
2023/03/22 07:36:55;;;;;;;;;;;12.30;5.31;;;;;;2669763;76;20423;-88
2023/03/22 07:40:23;;;;;;;;;;;12.36;4.58;;;;;;2668929;76;21443;-88
2023/03/22 07:43:51;;;;;;;;;;;12.41;3.68;;;;;;2668860;76;20468;-88
2023/03/22 07:47:19;;;;;;;;;;;12.47;3.20;;;;;;2669411;76;20443;-89
2023/03/22 07:50:47;;;;;;;;;;;12.44;2.29;;;;;;2667660;76;20415;-87
2023/03/22 07:54:15;;;;;;;;;;;12.61;1.84;;;;;;2669355;76;20454;-87
2023/03/22 07:57:44;;;;;;;;;;;12.77;2.12;;;;;;2667375;76;20415;-89
2023/03/22 08:01:12;;;;;;;;;;;12.88;1.93;;;;;;2669372;76;20431;-87
2023/03/22 08:04:40;;;;;;;;;;;12.91;1.53;;;;;;2669233;76;20463;-89
2023/03/22 08:08:13;;;;;;;;;;;13.06;1.71;;;;;;2667271;76;20427;-89
2023/03/22 08:11:38;;;;;;;;;;;13.23;1.70;;;;;;2668884;76;20451;-89
2023/03/22 08:15:06;;;;;;;;;;;13.31;1.71;;;;;;2668094;76;20443;-89
2023/03/22 08:18:34;;;;;;;;;;;13.45;1.83;;;;;;2668138;76;20875;-89
2023/03/22 08:22:03;;;;;;;;;;;13.33;0.48;;;;;;2669319;76;20768;-89
2023/03/22 08:25:32;;;;;;;;;;;13.56;0.23;;;;;;2666816;76;20557;-87
2023/03/22 08:29:00;;;;;;;;;;;13.69;0.20;;;;;;2667373;76;20434;-89
2023/03/22 08:32:28;;;;;;;;;;;13.80;-0.25;;;;;;2669451;76;20404;-90
2023/03/22 08:35:56;;;;;;;;;;;13.96;-0.32;;;;;;2669813;76;20424;-88
2023/03/22 08:39:24;;;;;;;;;;;14.05;-0.21;;;;;;2668106;76;20454;-88
2023/03/22 08:42:52;;;;;;;;;;;14.07;-1.20;;;;;;2668856;76;21096;-89
2023/03/22 08:46:21;;;;;;;;;;;14.20;-1.25;;;;;;2670000;76;20447;-88
2023/03/22 08:49:49;;;;;;;;;;;14.33;-1.16;;;;;;2668738;76;20981;-88
2023/03/22 08:53:17;;;;;;;;;;;14.40;-1.44;;;;;;2668893;76;20481;-89
2023/03/22 08:56:45;;;;;;;;;;;14.50;-1.54;;;;;;2668262;76;20896;-89
2023/03/22 09:00:13;;;;;;;;;;;14.57;-1.53;;;;;;2669580;76;20442;-89
2023/03/22 09:03:41;;;;;;;;;;;14.49;-3.70;;;;;;2668453;76;20470;-89
2023/03/22 09:07:10;;;;;;;;;;;14.80;-3.25;;;;;;2670031;76;20426;-89
2023/03/22 09:10:38;;;;;;;;;;;14.82;-4.31;;;;;;2668022;76;20891;-90
2023/03/22 09:14:06;;;;;;;;;;;14.91;-4.72;;;;;;2669063;76;20439;-90
2023/03/22 09:17:36;;;;;;;;;;;15.08;-4.14;;;;;;2669423;76;20481;-89
2023/03/22 09:21:06;;;;;;;;;;;15.14;-4.13;;;;;;2668850;76;20422;-90
2023/03/22 09:24:34;;;;;;;;;;;15.09;-5.29;;;;;;2667654;76;20530;-90
2023/03/22 09:28:02;;;;;;;;;;;15.12;-5.96;;;;;;2669004;76;20437;-90
2023/03/22 09:31:31;;;;;;;;;;;15.34;118.21;;;;;;2669170;76;21539;-89
2023/03/22 09:34:59;;;;;;;;;;;15.56;117.99;;;;;;2668932;76;20487;-90
2023/03/22 09:38:27;;;;;;;;;;;15.55;115.99;;;;;;2669557;76;20869;-90
2023/03/22 09:41:55;;;;;;;;;;;15.60;113.43;;;;;;2668818;76;20878;-90
2023/03/22 09:45:31;;;;;;;;;;;15.60;112.26;;;;;;2669246;76;20464;-90
2023/03/22 09:48:56;;;;;;;;;;;15.60;112.26;;;;;;2668482;76;20971;-90
2023/03/22 09:52:24;;;;;;;;;;;15.62;111.55;;;;;;2668375;76;20456;-90
2023/03/22 09:55:52;;;;;;;;;;;16.00;112.59;;;;;;2668287;76;20476;-90
2023/03/22 09:59:20;;;;;;;;;;;16.10;112.99;;;;;;2669720;76;20446;-89
2023/03/22 10:02:48;;;;;;;;;;;16.27;113.54;;;;;;2668361;76;20298;-91
2023/03/22 10:06:16;;;;;;;;;;;16.15;112.55;;;;;;2668476;76;20330;-89
2023/03/22 10:09:44;;;;;;;;;;;16.41;112.90;;;;;;2669088;76;20438;-89
2023/03/22 10:13:15;;;;;;;;;;;16.51;112.97;;;;;;2668890;76;20423;-86
2023/03/22 10:16:43;;;;;;;;;;;16.63;112.70;;;;;;2669125;76;20402;-90
2023/03/22 10:20:11;;;;;;;;;;;16.44;111.38;;;;;;2669170;76;20442;-89
2023/03/22 10:23:39;;;;;;;;;;;16.50;110.88;;;;;;2669573;76;20429;-90
2023/03/22 10:27:07;;;;;;;;;;;16.51;110.10;;;;;;2668420;76;20441;-90
2023/03/22 10:30:35;;;;;;;;;;;16.81;110.79;;;;;;2667170;76;20309;-89
2023/03/22 10:34:04;;;;;;;;;;;16.95;111.05;;;;;;2668310;76;20432;-90
2023/03/22 10:37:32;;;;;;;;;;;16.75;110.62;;;;;;2669136;76;20438;-90
2023/03/22 10:41:00;;;;;;;;;;;16.77;109.94;;;;;;2668464;76;20604;-88
2023/03/22 10:44:28;;;;;;;;;;;17.03;110.07;;;;;;2668408;76;20308;-90
2023/03/22 10:48:01;;;;;;;;;;;17.16;110.00;;;;;;2669357;76;20423;-91
2023/03/22 10:51:29;;;;;;;;;;;17.14;109.52;;;;;;2669714;76;20422;-89
2023/03/22 10:54:57;;;;;;;;;;;17.04;108.20;;;;;;2667871;76;20425;-88
2023/03/22 10:58:26;;;;;;;;;;;17.15;108.43;;;;;;2669008;76;20430;-91
2023/03/22 11:01:54;;;;;;;;;;;17.33;108.69;;;;;;2668930;76;20748;-90
2023/03/22 11:05:22;;;;;;;;;;;17.52;108.85;;;;;;2668383;76;20466;-90
2023/03/22 11:08:50;;;;;;;;;;;17.45;108.63;;;;;;2667437;76;20635;-90
2023/03/22 11:12:19;;;;;;;;;;;17.26;108.26;;;;;;2667564;76;20865;-90
2023/03/22 11:15:47;;;;;;;;;;;17.26;108.10;;;;;;2669030;76;20440;-91
2023/03/22 11:19:15;;;;;;;;;;;17.44;108.49;;;;;;2668237;76;20343;-90
2023/03/22 11:22:43;;;;;;;;;;;17.40;108.11;;;;;;2669765;76;20299;-90
2023/03/22 11:26:11;;;;;;;;;;;17.46;108.53;;;;;;2668149;76;20449;-89
2023/03/22 11:29:39;;;;;;;;;;;17.39;108.07;;;;;;2668465;76;20419;-89
2023/03/22 11:33:07;;;;;;;;;;;17.34;107.86;;;;;;2669538;76;20457;-89
2023/03/22 11:36:35;;;;;;;;;;;17.36;108.02;;;;;;2669521;76;20418;-90
2023/03/22 11:40:04;;;;;;;;;;;17.46;107.27;;;;;;2667232;76;20908;-88
2023/03/22 11:43:32;;;;;;;;;;;17.55;107.08;;;;;;2668213;76;20430;-90
2023/03/22 11:47:00;;;;;;;;;;;17.65;107.37;;;;;;2668483;76;20935;-88
2023/03/22 11:50:31;;;;;;;;;;;17.68;107.10;;;;;;2668506;76;20911;-90
2023/03/22 11:53:59;;;;;;;;;;;17.64;107.95;;;;;;2669183;76;20447;-90
2023/03/22 11:57:27;;;;;;;;;;;17.78;107.06;;;;;;2668603;76;20430;-91
2023/03/22 12:00:55;;;;;;;;;;;17.72;106.54;;;;;;2669767;76;20427;-89
2023/03/22 12:04:24;;;;;;;;;;;17.89;106.30;;;;;;2669463;76;20420;-90
2023/03/22 12:07:52;;;;;;;;;;;17.92;106.56;;;;;;2668750;76;20433;-89
2023/03/22 12:11:20;;;;;;;;;;;18.09;106.98;;;;;;2669544;76;20433;-88
2023/03/22 12:14:48;;;;;;;;;;;18.06;105.90;;;;;;2668852;76;21075;-89
2023/03/22 12:18:16;;;;;;;;;;;18.21;106.36;;;;;;2669641;76;20910;-90
2023/03/22 12:21:44;;;;;;;;;;;18.21;106.59;;;;;;2668925;76;20462;-91
2023/03/22 12:25:12;;;;;;;;;;;18.25;106.97;;;;;;2668405;76;20444;-88
2023/03/22 12:28:40;;;;;;;;;;;18.05;105.95;;;;;;2669112;76;20460;-89
2023/03/22 12:32:09;;;;;;;;;;;17.94;104.21;;;;;;2669825;76;20295;-89
2023/03/22 12:35:37;;;;;;;;;;;17.98;103.98;;;;;;2670041;76;20464;-89
2023/03/22 12:39:05;;;;;;;;;;;18.14;104.67;;;;;;2668460;76;20443;-90
2023/03/22 12:42:35;;;;;;;;;;;18.30;104.91;;;;;;2669927;76;20720;-90
2023/03/22 12:46:04;;;;;;;;;;;18.34;105.09;;;;;;2670225;76;20900;-89
2023/03/22 12:49:32;;;;;;;;;;;18.24;103.86;;;;;;2669975;76;20490;-90
2023/03/22 12:53:01;;;;;;;;;;;18.41;103.66;;;;;;2669760;76;20439;-89
2023/03/22 12:56:29;;;;;;;;;;;18.43;103.81;;;;;;2669582;76;20718;-89
2023/03/22 12:59:59;;;;;;;;;;;18.52;103.64;;;;;;2670499;76;20882;-89
2023/03/22 13:03:27;;;;;;;;;;;18.58;103.34;;;;;;2667718;76;20451;-90
2023/03/22 13:06:55;;;;;;;;;;;18.55;102.85;;;;;;2668982;76;20459;-90
2023/03/22 13:10:23;;;;;;;;;;;18.73;101.59;;;;;;2669655;76;20336;-88
2023/03/22 13:13:51;;;;;;;;;;;19.03;102.12;;;;;;2669901;76;20894;-89
2023/03/22 13:17:20;;;;;;;;;;;18.89;101.30;;;;;;2669667;76;20426;-89
2023/03/22 13:20:48;;;;;;;;;;;19.02;101.07;;;;;;2670226;76;20307;-90
2023/03/22 13:24:16;;;;;;;;;;;19.12;101.57;;;;;;2670124;76;20766;-90
2023/03/22 13:27:44;;;;;;;;;;;19.16;100.59;;;;;;2669082;76;20779;-90
2023/03/22 13:31:12;;;;;;;;;;;19.23;99.55;;;;;;2669952;76;20453;-90
2023/03/22 13:34:41;;;;;;;;;;;19.28;98.81;;;;;;2669200;76;20464;-90
2023/03/22 13:38:09;;;;;;;;;;;19.76;99.32;;;;;;2669089;76;21167;-89
2023/03/22 13:41:37;;;;;;;;;;;19.68;96.82;;;;;;2669755;76;20459;-90
2023/03/22 13:45:05;;;;;;;;;;;19.56;95.40;;;;;;2670686;76;20907;-90
2023/03/22 13:48:35;;;;;;;;;;;19.45;95.58;;;;;;2668280;76;20475;-90
2023/03/22 13:52:03;;;;;;;;;;;19.57;96.17;;;;;;2668925;76;20425;-90
2023/03/22 13:55:31;;;;;;;;;;;19.44;95.32;;;;;;2669584;76;20433;-89
2023/03/22 13:58:59;;;;;;;;;;;19.61;95.04;;;;;;2669772;76;20795;-89
2023/03/22 14:02:28;;;;;;;;;;;19.54;94.74;;;;;;2668605;76;20455;-90
2023/03/22 14:05:56;;;;;;;;;;;19.56;95.52;;;;;;2669530;76;20440;-87
2023/03/22 14:09:24;;;;;;;;;;;19.54;94.78;;;;;;2668719;76;20435;-88
2023/03/22 14:12:52;;;;;;;;;;;19.59;94.58;;;;;;2669424;76;20409;-90
2023/03/22 14:16:20;;;;;;;;;;;19.45;95.97;;;;;;2670452;76;20417;-90
2023/03/22 14:19:48;;;;;;;;;;;19.51;94.99;;;;;;2669536;76;20614;-89
2023/03/22 14:23:16;;;;;;;;;;;19.72;93.83;;;;;;2669730;76;20320;-90
2023/03/22 14:26:45;;;;;;;;;;;19.81;93.35;;;;;;2669703;76;20483;-88
2023/03/22 14:30:13;;;;;;;;;;;19.73;92.85;;;;;;2668775;76;20412;-89
2023/03/22 14:33:42;;;;;;;;;;;19.58;91.79;;;;;;2668042;76;20439;-87
2023/03/22 14:37:11;;;;;;;;;;;19.66;92.10;;;;;;2668774;76;20432;-90
2023/03/22 14:40:39;;;;;;;;;;;19.76;90.98;;;;;;2669150;76;20437;-89
2023/03/22 14:44:07;;;;;;;;;;;20.03;89.71;;;;;;2668766;76;20307;-90
2023/03/22 14:47:38;;;;;;;;;;;20.28;88.66;;;;;;2667725;76;20460;-90
2023/03/22 14:51:06;;;;;;;;;;;20.55;88.30;;;;;;2667882;76;20443;-89
2023/03/22 14:54:38;;;;;;;;;;;20.66;88.17;;;;;;2668053;76;20453;-88
2023/03/22 14:58:05;;;;;;;;;;;20.45;86.93;;;;;;2668790;76;20430;-90
2023/03/22 15:01:33;;;;;;;;;;;20.69;86.91;;;;;;2669380;76;20909;-89
2023/03/22 15:05:01;;;;;;;;;;;20.59;86.66;;;;;;2664760;76;20443;-89
2023/03/22 15:08:30;;;;;;;;;;;20.79;87.02;;;;;;2667334;76;20946;-90
2023/03/22 15:12:00;;;;;;;;;;;21.20;86.18;;;;;;2667914;76;20439;-90
2023/03/22 15:15:31;;;;;;;;;;;21.64;85.38;;;;;;2668619;76;20444;-90
2023/03/22 15:18:59;;;;;;;;;;;23.43;83.45;;;;;;2668632;76;21164;-90
2023/03/22 15:22:27;;;;;;;;;;;24.54;79.65;;;;;;2669403;76;20344;-90
2023/03/22 15:26:00;;;;;;;;;;;25.54;77.69;;;;;;2668265;76;20447;-90
2023/03/22 15:29:26;;;;;;;;;;;27.46;77.33;;;;;;2666506;76;20476;-88
2023/03/22 15:32:55;;;;;;;;;;;28.12;72.73;;;;;;2667854;76;20437;-90
2023/03/22 15:36:28;;;;;;;;;;;29.61;71.36;;;;;;2667116;76;20412;-91
2023/03/22 15:39:53;;;;;;;;;;;30.25;69.58;;;;;;2668688;76;20440;-92
2023/03/22 15:43:27;;;;;;;;;;;31.21;67.89;;;;;;2669524;76;20473;-86
2023/03/22 15:46:51;;;;;;;;;;;28.43;67.20;;;;;;2668253;76;20881;-88
2023/03/22 15:50:20;;;;;;;;;;;25.48;71.40;;;;;;2668427;76;20478;-87
2023/03/22 15:53:48;;;;;;;;;;;26.66;72.50;;;;;;2666793;76;20493;-86
2023/03/22 15:57:16;;;;;;;;;;;24.77;73.59;;;;;;2667203;76;20443;-90
2023/03/22 16:00:50;;;;;;;;;;;23.21;77.18;;;;;;2669422;76;20446;-91
2023/03/22 16:04:20;;;;;;;;;;;22.46;80.09;;;;;;2669302;76;20433;-88
2023/03/22 16:07:48;;;;;;;;;;;21.31;81.76;;;;;;2664459;76;20649;-87
2023/03/22 16:11:16;;;;;;;;;;;20.62;85.19;;;;;;2666021;76;20440;-89
2023/03/22 16:14:52;;;;;;;;;;;20.83;86.30;;;;;;2667867;76;20448;-91
2023/03/22 16:18:23;;;;;;;;;;;21.76;86.31;;;;;;2667809;76;20467;-88
2023/03/22 16:21:51;;;;;;;;;;;22.75;84.51;;;;;;2667722;76;20491;-88
2023/03/22 16:25:19;;;;;;;;;;;24.01;80.76;;;;;;2668485;76;20400;-87
2023/03/22 16:28:50;;;;;;;;;;;21.74;83.29;;;;;;2668151;76;20955;-88
2023/03/22 16:32:20;;;;;;;;;;;20.79;85.00;;;;;;2668072;76;20436;-88
2023/03/22 16:35:47;;;;;;;;;;;20.25;85.03;;;;;;2668810;76;20413;-86
2023/03/22 16:39:16;;;;;;;;;;;19.62;84.49;;;;;;2665988;76;20447;-89
2023/03/22 16:42:47;;;;;;;;;;;19.47;84.63;;;;;;2668384;76;20324;-88
2023/03/22 16:46:19;;;;;;;;;;;19.00;85.22;;;;;;2668924;76;20444;-91
2023/03/22 16:49:49;;;;;;;;;;;18.85;85.92;;;;;;2668448;76;20922;-91
2023/03/22 16:53:17;;;;;;;;;;;18.66;86.16;;;;;;2669187;76;20589;-88
2023/03/22 16:56:46;;;;;;;;;;;18.47;86.63;;;;;;2669818;76;20456;-88
2023/03/22 17:00:14;;;;;;;;;;;18.23;87.29;;;;;;2669725;76;20423;-86
2023/03/22 17:03:42;;;;;;;;;;;18.00;88.02;;;;;;2669001;76;20434;-89
2023/03/22 17:07:13;;;;;;;;;;;17.73;88.44;;;;;;2668762;76;20938;-89
2023/03/22 17:10:41;;;;;;;;;;;17.44;88.93;;;;;;2668455;76;20907;-88
2023/03/22 17:14:09;;;;;;;;;;;17.16;89.47;;;;;;2669240;76;20542;-88
2023/03/22 17:17:38;;;;;;;;;;;16.85;89.98;;;;;;2666793;76;20473;-87
2023/03/22 17:21:10;;;;;;;;;;;16.51;90.45;;;;;;2668699;76;20446;-86
2023/03/22 17:24:39;;;;;;;;;;;16.20;90.89;;;;;;2669122;76;20486;-90
2023/03/22 17:28:07;;;;;;;;;;;15.98;91.49;;;;;;2669158;76;20459;-86
2023/03/22 17:31:35;;;;;;;;;;;15.73;91.89;;;;;;2668870;76;20420;-87
2023/03/22 17:35:03;;;;;;;;;;;15.45;92.36;;;;;;2667680;76;20420;-87
2023/03/22 17:38:31;;;;;;;;;;;15.24;92.73;;;;;;2668671;76;20446;-87
2023/03/22 17:41:59;;;;;;;;;;;15.02;93.04;;;;;;2668880;76;20416;-89
2023/03/22 17:45:28;;;;;;;;;;;14.84;93.24;;;;;;2669132;76;20482;-88
2023/03/22 17:48:56;;;;;;;;;;;14.64;93.61;;;;;;2667605;76;20453;-89
2023/03/22 17:52:24;;;;;;;;;;;14.42;93.78;;;;;;2669177;76;20467;-89
2023/03/22 17:55:52;;;;;;;;;;;14.19;93.90;;;;;;2669835;76;20462;-89
2023/03/22 17:59:20;;;;;;;;;;;13.96;94.07;;;;;;2670088;76;20435;-89
2023/03/22 18:02:48;;;;;;;;;;;13.78;94.31;;;;;;2669106;76;20916;-89
2023/03/22 18:06:16;;;;;;;;;;;13.60;94.40;;;;;;2670341;76;20434;-89
2023/03/22 18:09:44;;;;;;;;;;;13.41;94.83;;;;;;2669139;76;20468;-90
2023/03/22 18:13:13;;;;;;;;;;;13.26;95.19;;;;;;2669522;76;20450;-89
2023/03/22 18:16:41;;;;;;;;;;;13.15;95.55;;;;;;2669723;76;20464;-89
2023/03/22 18:20:12;;;;;;;;;;;13.02;95.91;;;;;;2669502;76;20320;-86
2023/03/22 18:23:40;;;;;;;;;;;12.91;96.10;;;;;;2669575;76;20475;-89
2023/03/22 18:27:08;;;;;;;;;;;12.84;96.26;;;;;;2670149;76;20665;-89
2023/03/22 18:30:37;;;;;;;;;;;12.79;96.66;;;;;;2670203;76;20858;-90
2023/03/22 18:34:05;;;;;;;;;;;12.79;96.98;;;;;;2669801;76;20317;-88
2023/03/22 18:37:36;;;;;;;;;;;12.75;97.21;;;;;;2669781;76;20361;-90
2023/03/22 18:41:03;;;;;;;;;;;12.72;97.65;;;;;;2670213;76;20329;-89
2023/03/22 18:44:31;;;;;;;;;;;12.70;97.78;;;;;;2670222;76;20339;-90
2023/03/22 18:48:00;;;;;;;;;;;12.65;97.94;;;;;;2668885;76;20415;-89
2023/03/22 18:51:28;;;;;;;;;;;12.60;98.36;;;;;;2669593;76;20452;-89
2023/03/22 18:54:56;;;;;;;;;;;12.60;98.74;;;;;;2670161;76;20525;-88
2023/03/22 18:58:25;;;;;;;;;;;12.56;98.89;;;;;;2669347;76;20528;-89
2023/03/22 19:01:53;;;;;;;;;;;12.49;99.48;;;;;;2670062;76;20437;-90
2023/03/22 19:05:21;;;;;;;;;;;12.38;99.52;;;;;;2668640;76;20485;-88
2023/03/22 19:08:49;;;;;;;;;;;12.23;99.64;;;;;;2670447;76;20806;-89
2023/03/22 19:12:20;;;;;;;;;;;12.11;99.86;;;;;;2670662;76;20461;-90
2023/03/22 19:15:54;;;;;;;;;;;11.92;99.90;;;;;;2670502;76;20366;-89
2023/03/22 19:19:23;;;;;;;;;;;11.76;100.11;;;;;;2669484;76;20879;-89
2023/03/22 19:22:51;;;;;;;;;;;11.66;100.33;;;;;;2670392;76;20345;-89
2023/03/22 19:26:19;;;;;;;;;;;11.59;100.48;;;;;;2670133;76;20312;-89
2023/03/22 19:29:47;;;;;;;;;;;11.48;100.59;;;;;;2670136;76;20483;-89
2023/03/22 19:33:15;;;;;;;;;;;11.41;100.79;;;;;;2670200;76;20450;-89
2023/03/22 19:36:43;;;;;;;;;;;11.34;100.95;;;;;;2669730;76;20427;-90
2023/03/22 19:40:11;;;;;;;;;;;11.23;101.18;;;;;;2669820;76;20325;-89
2023/03/22 19:43:40;;;;;;;;;;;11.18;101.51;;;;;;2669754;76;20424;-88
2023/03/22 19:47:10;;;;;;;;;;;11.11;102.06;;;;;;2667910;76;20443;-89
2023/03/22 19:50:38;;;;;;;;;;;11.02;102.44;;;;;;2669360;76;20870;-89
2023/03/22 19:54:06;;;;;;;;;;;10.97;103.72;;;;;;2669304;76;20483;-88
2023/03/22 19:57:34;;;;;;;;;;;10.95;103.52;;;;;;2668378;76;20468;-89
2023/03/22 20:01:09;;;;;;;;;;;10.85;103.38;;;;;;2668024;76;20483;-90
2023/03/22 20:04:33;;;;;;;;;;;10.78;103.48;;;;;;2668789;76;20455;-89
2023/03/22 20:08:03;;;;;;;;;;;10.70;103.60;;;;;;2667962;76;20452;-89
2023/03/22 20:11:35;;;;;;;;;;;10.64;103.73;;;;;;2668063;76;20308;-88
2023/03/22 20:15:03;;;;;;;;;;;10.58;103.99;;;;;;2668813;76;20354;-89
2023/03/22 20:18:31;;;;;;;;;;;10.53;104.23;;;;;;2667424;76;20418;-88